Time;durP1;ratioP1;P1;durP2;ratioP2;P2;SDS_P1;SDS_P2;PMS_P1;PMS_P2;Temp;Humidity;BMP_temperature;BMP_pressure;BME280_temperature;BME280_humidity;BME280_pressure;Samples;Min_cycle;Max_cycle;Signal;HPM_P1;HPM_P2
2024/01/02 00:01:45;;;;;;;;;;;5.50;99.90;;;;;;4983246;28;20046;-71
2024/01/02 00:04:11;;;;;;;;;;;5.50;99.90;;;;;;5000233;28;20671;-72
2024/01/02 00:06:37;;;;;;;;;;;5.50;99.90;;;;;;4981169;28;19928;-72
2024/01/02 00:09:03;;;;;;;;;;;5.50;99.90;;;;;;4981101;28;20648;-72
2024/01/02 00:11:29;;;;;;;;;;;5.60;99.90;;;;;;4959078;28;19931;-72
2024/01/02 00:13:55;;;;;;;;;;;5.50;99.90;;;;;;5000283;28;19980;-71
2024/01/02 00:16:21;;;;;;;;;;;5.60;99.90;;;;;;4978370;28;19936;-71
2024/01/02 00:18:46;;;;;;;;;;;5.60;99.90;;;;;;5000072;28;20031;-72
2024/01/02 00:21:13;;;;;;;;;;;5.70;99.90;;;;;;4968212;28;19924;-71
2024/01/02 00:23:38;;;;;;;;;;;5.70;99.90;;;;;;4996437;28;19924;-72
2024/01/02 00:26:04;;;;;;;;;;;5.70;99.90;;;;;;4977083;28;19930;-72
2024/01/02 00:28:30;;;;;;;;;;;5.80;99.90;;;;;;4986515;28;19924;-72
2024/01/02 00:30:56;;;;;;;;;;;5.80;99.90;;;;;;4968931;28;19936;-72
2024/01/02 00:33:22;;;;;;;;;;;5.80;99.90;;;;;;5008523;28;19931;-73
2024/01/02 00:35:48;;;;;;;;;;;5.80;99.90;;;;;;4974193;28;20964;-72
2024/01/02 00:38:14;;;;;;;;;;;5.80;99.90;;;;;;4972087;28;19936;-72
2024/01/02 00:40:40;;;;;;;;;;;5.80;99.90;;;;;;4958390;28;21053;-73
2024/01/02 00:43:06;;;;;;;;;;;5.90;99.90;;;;;;5005974;28;20686;-72
2024/01/02 00:45:31;;;;;;;;;;;5.90;99.90;;;;;;4948122;28;19932;-72
2024/01/02 00:47:57;;;;;;;;;;;5.90;99.90;;;;;;4998236;28;19932;-73
2024/01/02 00:50:23;;;;;;;;;;;5.90;99.90;;;;;;4968523;28;20716;-73
2024/01/02 00:52:49;;;;;;;;;;;5.90;99.90;;;;;;4995007;28;19928;-72
2024/01/02 00:55:15;;;;;;;;;;;5.90;99.90;;;;;;4971356;28;20980;-73
2024/01/02 00:57:41;;;;;;;;;;;5.90;99.90;;;;;;4991505;28;19929;-73
2024/01/02 01:00:08;;;;;;;;;;;6.00;99.90;;;;;;4972925;28;20419;-73
2024/01/02 01:02:34;;;;;;;;;;;5.90;99.90;;;;;;4985132;28;19935;-74
2024/01/02 01:04:59;;;;;;;;;;;5.90;99.90;;;;;;4990156;28;19925;-73
2024/01/02 01:07:25;;;;;;;;;;;6.00;99.90;;;;;;4996261;28;20889;-73
2024/01/02 01:09:51;;;;;;;;;;;6.00;99.90;;;;;;4979119;28;19924;-73
2024/01/02 01:12:17;;;;;;;;;;;6.00;99.90;;;;;;4983348;28;21044;-73
2024/01/02 01:14:43;;;;;;;;;;;6.00;99.90;;;;;;4979721;28;19929;-73
2024/01/02 01:17:09;;;;;;;;;;;5.90;99.90;;;;;;4982920;28;20424;-73
2024/01/02 01:19:36;;;;;;;;;;;6.00;99.90;;;;;;4978839;28;20415;-74
2024/01/02 01:22:03;;;;;;;;;;;6.00;99.90;;;;;;4968940;28;19931;-74
2024/01/02 01:24:29;;;;;;;;;;;5.90;99.90;;;;;;4981348;28;19924;-74
2024/01/02 01:26:54;;;;;;;;;;;6.00;99.90;;;;;;4980233;28;20221;-75
2024/01/02 01:29:20;;;;;;;;;;;6.00;99.90;;;;;;4982264;28;20406;-75
2024/01/02 01:31:46;;;;;;;;;;;6.00;99.90;;;;;;4961041;28;19935;-75
2024/01/02 01:34:13;;;;;;;;;;;6.00;99.90;;;;;;4981311;28;19932;-75
2024/01/02 01:36:39;;;;;;;;;;;6.00;99.90;;;;;;4965910;28;19929;-75
2024/01/02 01:39:05;;;;;;;;;;;6.00;99.90;;;;;;4985774;28;20920;-76
2024/01/02 01:41:31;;;;;;;;;;;6.10;99.90;;;;;;4981967;28;19946;-76
2024/01/02 01:43:57;;;;;;;;;;;6.10;99.90;;;;;;5003214;28;20486;-76
2024/01/02 01:46:25;;;;;;;;;;;6.10;99.90;;;;;;4982607;28;19925;-76
2024/01/02 01:48:51;;;;;;;;;;;6.10;99.90;;;;;;5005203;28;19941;-77
2024/01/02 01:51:17;;;;;;;;;;;6.10;99.90;;;;;;4979044;28;19928;-76
2024/01/02 01:53:43;;;;;;;;;;;6.10;99.90;;;;;;5006905;28;21465;-78
2024/01/02 01:56:09;;;;;;;;;;;6.20;99.90;;;;;;4967216;28;21120;-78
2024/01/02 01:58:35;;;;;;;;;;;6.20;99.90;;;;;;5008819;28;20009;-76
2024/01/02 02:01:01;;;;;;;;;;;6.20;99.90;;;;;;4960273;28;19929;-77
2024/01/02 02:03:27;;;;;;;;;;;6.20;99.90;;;;;;4990712;28;21202;-78
2024/01/02 02:05:53;;;;;;;;;;;6.20;99.90;;;;;;4969317;28;20746;-77
2024/01/02 02:08:19;;;;;;;;;;;6.20;99.90;;;;;;5013743;28;19925;-77
2024/01/02 02:10:45;;;;;;;;;;;6.30;99.90;;;;;;4984487;28;19924;-77
2024/01/02 02:13:11;;;;;;;;;;;6.30;99.90;;;;;;5014898;28;19929;-77
2024/01/02 02:15:40;;;;;;;;;;;6.30;99.90;;;;;;4978029;28;19929;-77
2024/01/02 02:18:06;;;;;;;;;;;6.30;99.90;;;;;;5009313;28;19944;-77
2024/01/02 02:20:32;;;;;;;;;;;6.30;99.90;;;;;;4959611;28;20045;-78
2024/01/02 02:22:58;;;;;;;;;;;6.30;99.90;;;;;;4989703;28;19925;-78
2024/01/02 02:25:24;;;;;;;;;;;6.30;99.90;;;;;;4989787;28;19924;-79
2024/01/02 02:27:50;;;;;;;;;;;6.30;99.90;;;;;;5001737;28;19929;-78
2024/01/02 02:30:16;;;;;;;;;;;6.40;99.90;;;;;;4959269;28;21039;-78
2024/01/02 02:32:42;;;;;;;;;;;6.40;99.90;;;;;;5013699;28;19925;-79
2024/01/02 02:35:08;;;;;;;;;;;6.40;99.90;;;;;;4977492;28;19929;-78
2024/01/02 02:37:34;;;;;;;;;;;6.40;99.90;;;;;;4999195;28;19929;-78
2024/01/02 02:40:00;;;;;;;;;;;6.40;99.90;;;;;;4980334;28;19925;-78
2024/01/02 02:42:26;;;;;;;;;;;6.40;99.90;;;;;;5004028;28;19935;-78
2024/01/02 02:44:52;;;;;;;;;;;6.40;99.90;;;;;;5007824;28;19931;-78
2024/01/02 02:47:18;;;;;;;;;;;6.40;99.90;;;;;;4989821;28;19929;-79
2024/01/02 02:49:43;;;;;;;;;;;6.40;99.90;;;;;;4993405;28;19925;-80
2024/01/02 02:52:09;;;;;;;;;;;6.40;99.90;;;;;;4990723;28;19952;-80
2024/01/02 02:54:35;;;;;;;;;;;6.40;99.90;;;;;;5009695;28;19925;-79
2024/01/02 02:57:02;;;;;;;;;;;6.40;99.90;;;;;;4980457;28;19933;-79
2024/01/02 02:59:28;;;;;;;;;;;6.40;99.90;;;;;;5006013;28;19936;-80
2024/01/02 03:01:54;;;;;;;;;;;6.40;99.90;;;;;;4993020;28;19947;-80
2024/01/02 03:04:20;;;;;;;;;;;6.40;99.90;;;;;;5008454;28;19925;-80
2024/01/02 03:06:46;;;;;;;;;;;6.30;99.90;;;;;;4972565;28;19931;-81
2024/01/02 03:09:12;;;;;;;;;;;6.40;99.90;;;;;;5009789;28;20495;-80
2024/01/02 03:11:37;;;;;;;;;;;6.40;99.90;;;;;;4993878;28;20038;-81
2024/01/02 03:14:03;;;;;;;;;;;6.30;99.90;;;;;;5006132;28;19931;-80
2024/01/02 03:16:29;;;;;;;;;;;6.30;99.90;;;;;;4968128;28;19967;-80
2024/01/02 03:18:55;;;;;;;;;;;6.30;99.90;;;;;;5001904;28;19929;-81
2024/01/02 03:21:28;;;;;;;;;;;6.30;99.90;;;;;;4973702;28;19929;-80
2024/01/02 03:23:55;;;;;;;;;;;6.40;99.90;;;;;;4989050;28;19925;-81
2024/01/02 03:26:21;;;;;;;;;;;6.40;99.90;;;;;;4971827;28;19932;-79
2024/01/02 03:28:47;;;;;;;;;;;6.30;99.90;;;;;;5019349;28;20439;-80
2024/01/02 03:31:13;;;;;;;;;;;6.40;99.90;;;;;;4969273;28;20672;-80
2024/01/02 03:33:39;;;;;;;;;;;6.40;99.90;;;;;;4992814;28;19932;-81
2024/01/02 03:36:11;;;;;;;;;;;6.30;99.90;;;;;;4986424;28;19937;-80
2024/01/02 03:38:37;;;;;;;;;;;6.40;99.90;;;;;;4993115;28;20410;-80
2024/01/02 03:41:03;;;;;;;;;;;6.40;99.90;;;;;;4987426;28;19929;-80
2024/01/02 03:43:29;;;;;;;;;;;6.40;99.90;;;;;;5015921;28;20057;-79
2024/01/02 03:45:54;;;;;;;;;;;6.40;99.90;;;;;;4965184;28;19935;-79
2024/01/02 03:48:23;;;;;;;;;;;6.40;99.90;;;;;;4991589;28;19932;-78
2024/01/02 03:50:49;;;;;;;;;;;6.40;99.90;;;;;;4975378;28;19925;-79
2024/01/02 03:53:15;;;;;;;;;;;6.40;99.90;;;;;;4994357;28;21285;-79
2024/01/02 03:55:41;;;;;;;;;;;6.40;99.90;;;;;;4958042;28;19936;-79
2024/01/02 03:58:07;;;;;;;;;;;6.40;99.90;;;;;;5016329;28;19935;-79
2024/01/02 04:00:33;;;;;;;;;;;6.40;99.90;;;;;;4956329;28;19963;-80
2024/01/02 04:02:59;;;;;;;;;;;6.40;99.90;;;;;;4980475;28;20643;-81
2024/01/02 04:05:25;;;;;;;;;;;6.40;99.90;;;;;;4954755;28;19929;-81
2024/01/02 04:07:51;;;;;;;;;;;6.40;99.90;;;;;;5005080;28;19935;-80
2024/01/02 04:10:17;;;;;;;;;;;6.40;99.90;;;;;;4957172;28;19958;-80
2024/01/02 04:12:43;;;;;;;;;;;6.40;99.90;;;;;;4996240;28;19929;-80
2024/01/02 04:15:09;;;;;;;;;;;6.40;99.90;;;;;;4992200;28;19936;-79
2024/01/02 04:17:35;;;;;;;;;;;6.40;99.90;;;;;;4999724;28;20827;-80
2024/01/02 04:20:01;;;;;;;;;;;6.40;99.90;;;;;;4981346;28;19925;-80
2024/01/02 04:22:27;;;;;;;;;;;6.40;99.90;;;;;;5022015;28;19924;-80
2024/01/02 04:24:52;;;;;;;;;;;6.40;99.90;;;;;;4987388;28;19974;-79
2024/01/02 04:27:18;;;;;;;;;;;6.40;99.90;;;;;;4973362;28;20771;-79
2024/01/02 04:29:44;;;;;;;;;;;6.40;99.90;;;;;;5008302;28;19925;-80
2024/01/02 04:32:10;;;;;;;;;;;6.40;99.90;;;;;;4990888;28;19925;-80
2024/01/02 04:34:36;;;;;;;;;;;6.40;99.90;;;;;;5010948;28;20423;-80
2024/01/02 04:37:02;;;;;;;;;;;6.40;99.90;;;;;;4991875;28;19941;-80
2024/01/02 04:39:28;;;;;;;;;;;6.30;99.90;;;;;;5012127;28;20167;-79
2024/01/02 04:41:54;;;;;;;;;;;6.40;99.90;;;;;;4980987;28;19924;-80
2024/01/02 04:44:20;;;;;;;;;;;6.40;99.90;;;;;;5013363;28;19929;-79
2024/01/02 04:46:46;;;;;;;;;;;6.30;99.90;;;;;;4985491;28;19932;-80
2024/01/02 04:49:13;;;;;;;;;;;6.30;99.90;;;;;;4978383;28;19936;-80
2024/01/02 04:51:39;;;;;;;;;;;6.40;99.90;;;;;;4992728;28;19931;-80
2024/01/02 04:54:04;;;;;;;;;;;6.30;99.90;;;;;;4981014;28;19925;-79
2024/01/02 04:56:30;;;;;;;;;;;6.40;99.90;;;;;;4993493;28;20672;-79
2024/01/02 04:58:56;;;;;;;;;;;6.30;99.90;;;;;;5007667;28;19929;-79
2024/01/02 05:01:22;;;;;;;;;;;6.40;99.90;;;;;;4980676;28;20018;-80
2024/01/02 05:03:48;;;;;;;;;;;6.40;99.90;;;;;;5009908;28;20738;-80
2024/01/02 05:06:14;;;;;;;;;;;6.40;99.90;;;;;;4989543;28;20008;-82
2024/01/02 05:08:40;;;;;;;;;;;6.40;99.90;;;;;;5000608;28;19928;-80
2024/01/02 05:11:06;;;;;;;;;;;6.40;99.90;;;;;;5003104;28;19928;-79
2024/01/02 05:13:32;;;;;;;;;;;6.30;99.90;;;;;;5003163;28;19917;-79
2024/01/02 05:15:57;;;;;;;;;;;6.40;99.90;;;;;;4988407;28;19929;-79
2024/01/02 05:18:24;;;;;;;;;;;6.40;99.90;;;;;;5019772;28;20203;-79
2024/01/02 05:20:49;;;;;;;;;;;6.40;99.90;;;;;;4997567;28;19931;-81
2024/01/02 05:23:15;;;;;;;;;;;6.40;99.90;;;;;;5021393;28;20153;-78
2024/01/02 05:25:42;;;;;;;;;;;6.40;99.90;;;;;;4983701;28;19928;-79
2024/01/02 05:28:08;;;;;;;;;;;6.40;99.90;;;;;;5015642;28;19929;-79
2024/01/02 05:30:34;;;;;;;;;;;6.40;99.90;;;;;;4986262;28;19929;-79
2024/01/02 05:33:00;;;;;;;;;;;6.40;99.90;;;;;;5016817;28;19924;-79
2024/01/02 05:35:25;;;;;;;;;;;6.40;99.90;;;;;;4982765;28;20383;-81
2024/01/02 05:37:51;;;;;;;;;;;6.40;99.90;;;;;;5018075;28;19939;-80
2024/01/02 05:40:17;;;;;;;;;;;6.40;99.90;;;;;;4972358;28;19941;-79
2024/01/02 05:42:43;;;;;;;;;;;6.40;99.90;;;;;;5019795;28;21228;-79
2024/01/02 05:45:09;;;;;;;;;;;6.40;99.90;;;;;;4977388;28;19925;-80
2024/01/02 05:47:35;;;;;;;;;;;6.40;99.90;;;;;;5016043;28;20749;-79
2024/01/02 05:50:01;;;;;;;;;;;6.40;99.90;;;;;;4970622;28;20299;-78
2024/01/02 05:52:27;;;;;;;;;;;6.40;99.90;;;;;;4984663;28;19925;-79
2024/01/02 05:54:53;;;;;;;;;;;6.40;99.90;;;;;;5015898;28;20387;-79
2024/01/02 05:57:18;;;;;;;;;;;6.40;99.90;;;;;;4969911;28;20412;-79
2024/01/02 05:59:44;;;;;;;;;;;6.40;99.90;;;;;;5002928;28;19936;-79
2024/01/02 06:02:11;;;;;;;;;;;6.50;99.90;;;;;;4972711;28;19924;-80
2024/01/02 06:04:37;;;;;;;;;;;6.40;99.90;;;;;;4983777;28;19925;-78
2024/01/02 06:07:02;;;;;;;;;;;6.50;99.90;;;;;;4989036;28;19924;-79
2024/01/02 06:09:28;;;;;;;;;;;6.50;99.90;;;;;;5000797;28;19929;-80
2024/01/02 06:11:54;;;;;;;;;;;6.50;99.90;;;;;;4990075;28;20032;-80
2024/01/02 06:14:20;;;;;;;;;;;6.50;99.90;;;;;;5005894;28;19925;-80
2024/01/02 06:16:46;;;;;;;;;;;6.50;99.90;;;;;;4976256;28;19956;-80
2024/01/02 06:19:12;;;;;;;;;;;6.50;99.90;;;;;;4985317;28;19929;-79
2024/01/02 06:21:38;;;;;;;;;;;6.50;99.90;;;;;;4985405;28;19940;-80
2024/01/02 06:24:04;;;;;;;;;;;6.50;99.90;;;;;;4983522;28;20292;-79
2024/01/02 06:26:30;;;;;;;;;;;6.50;99.90;;;;;;4986317;28;19925;-79
2024/01/02 06:28:56;;;;;;;;;;;6.50;99.90;;;;;;5004579;28;19927;-79
2024/01/02 06:31:22;;;;;;;;;;;6.50;99.90;;;;;;4965220;28;21103;-78
2024/01/02 06:33:48;;;;;;;;;;;6.60;99.90;;;;;;4991513;28;19939;-78
2024/01/02 06:36:14;;;;;;;;;;;6.50;99.90;;;;;;4973105;28;20029;-78
2024/01/02 06:38:40;;;;;;;;;;;6.60;99.90;;;;;;4977934;28;19932;-78
2024/01/02 06:41:06;;;;;;;;;;;6.60;99.90;;;;;;4993036;28;20487;-79
2024/01/02 06:43:32;;;;;;;;;;;6.60;99.90;;;;;;4987762;28;19929;-78
2024/01/02 06:46:01;;;;;;;;;;;6.60;99.90;;;;;;4965675;28;21932;-78
2024/01/02 06:48:27;;;;;;;;;;;6.60;99.90;;;;;;4991419;28;19925;-78
2024/01/02 06:50:53;;;;;;;;;;;6.60;99.90;;;;;;4951300;28;19932;-78
2024/01/02 06:53:19;;;;;;;;;;;6.60;99.90;;;;;;4996600;28;20310;-77
2024/01/02 06:55:45;;;;;;;;;;;6.60;99.90;;;;;;4983163;28;19924;-78
2024/01/02 06:58:11;;;;;;;;;;;6.70;99.90;;;;;;4995940;28;19929;-77
2024/01/02 07:00:37;;;;;;;;;;;6.70;99.90;;;;;;4961818;28;20581;-77
2024/01/02 07:03:03;;;;;;;;;;;6.70;99.90;;;;;;5016797;28;20736;-77
2024/01/02 07:05:29;;;;;;;;;;;6.70;99.90;;;;;;4962638;28;19924;-79
2024/01/02 07:07:55;;;;;;;;;;;6.70;99.90;;;;;;5014599;28;21156;-77
2024/01/02 07:10:24;;;;;;;;;;;6.80;99.90;;;;;;4979315;28;19924;-77
2024/01/02 07:12:50;;;;;;;;;;;6.80;99.90;;;;;;4999319;28;19924;-76
2024/01/02 07:15:16;;;;;;;;;;;6.80;99.90;;;;;;4981268;28;21264;-77
2024/01/02 07:17:43;;;;;;;;;;;6.80;99.90;;;;;;5022362;28;19975;-78
2024/01/02 07:20:09;;;;;;;;;;;6.90;99.90;;;;;;4979738;28;19928;-77
2024/01/02 07:22:35;;;;;;;;;;;6.90;99.90;;;;;;5017768;28;19920;-76
2024/01/02 07:25:01;;;;;;;;;;;6.90;99.90;;;;;;4979911;28;20584;-77
2024/01/02 07:27:26;;;;;;;;;;;7.00;99.90;;;;;;5012062;28;19931;-78
2024/01/02 07:29:53;;;;;;;;;;;7.00;99.90;;;;;;5021710;28;20387;-76
2024/01/02 07:32:19;;;;;;;;;;;7.00;99.90;;;;;;4959364;28;19932;-78
2024/01/02 07:34:45;;;;;;;;;;;7.00;99.90;;;;;;5003150;28;19929;-76
2024/01/02 07:37:11;;;;;;;;;;;7.10;99.90;;;;;;4971883;28;20066;-76
2024/01/02 07:39:38;;;;;;;;;;;7.20;99.90;;;;;;5020019;28;20913;-76
2024/01/02 07:42:05;;;;;;;;;;;7.20;99.90;;;;;;4985874;28;19929;-76
2024/01/02 07:44:31;;;;;;;;;;;7.30;99.90;;;;;;5019329;28;19924;-77
2024/01/02 07:46:57;;;;;;;;;;;7.30;99.90;;;;;;4986946;28;20005;-77
2024/01/02 07:49:23;;;;;;;;;;;7.40;99.90;;;;;;5017510;28;20926;-75
2024/01/02 07:51:50;;;;;;;;;;;7.40;99.90;;;;;;4972858;28;19929;-76
2024/01/02 07:54:16;;;;;;;;;;;7.40;99.90;;;;;;5001206;28;19935;-76
2024/01/02 07:56:42;;;;;;;;;;;7.50;99.90;;;;;;4957400;28;19924;-76
2024/01/02 07:59:08;;;;;;;;;;;7.50;99.90;;;;;;4992219;28;21276;-76
2024/01/02 08:01:34;;;;;;;;;;;7.60;99.90;;;;;;4988545;28;21138;-76
2024/01/02 08:04:00;;;;;;;;;;;7.60;99.90;;;;;;5001018;28;20411;-76
2024/01/02 08:06:28;;;;;;;;;;;7.80;99.90;;;;;;4984163;28;20953;-76
2024/01/02 08:08:53;;;;;;;;;;;7.90;99.90;;;;;;5005484;28;19924;-77
2024/01/02 08:11:19;;;;;;;;;;;8.00;99.90;;;;;;4957525;28;19952;-76
2024/01/02 08:13:45;;;;;;;;;;;8.00;99.90;;;;;;5016439;28;19931;-75
2024/01/02 08:16:11;;;;;;;;;;;8.10;99.90;;;;;;4982910;28;19999;-76
2024/01/02 08:18:41;;;;;;;;;;;8.20;99.90;;;;;;4983606;28;20442;-76
2024/01/02 08:21:07;;;;;;;;;;;8.30;99.90;;;;;;4965807;28;19997;-75
2024/01/02 08:23:35;;;;;;;;;;;8.50;99.90;;;;;;4992951;28;19925;-75
2024/01/02 08:26:02;;;;;;;;;;;8.60;99.90;;;;;;4980643;28;19924;-75
2024/01/02 08:28:28;;;;;;;;;;;8.70;99.90;;;;;;4990301;28;19924;-74
2024/01/02 08:30:54;;;;;;;;;;;8.80;99.90;;;;;;4963805;28;19924;-74
2024/01/02 08:33:20;;;;;;;;;;;8.80;99.90;;;;;;5007352;28;19964;-74
2024/01/02 08:35:46;;;;;;;;;;;8.90;99.90;;;;;;4980765;28;19931;-75
2024/01/02 08:38:12;;;;;;;;;;;9.00;99.90;;;;;;5009423;28;19928;-75
2024/01/02 08:40:38;;;;;;;;;;;9.10;99.90;;;;;;4977242;28;20186;-75
2024/01/02 08:43:04;;;;;;;;;;;9.20;99.90;;;;;;5007143;28;19925;-75
2024/01/02 08:45:29;;;;;;;;;;;9.30;99.90;;;;;;4950581;28;20219;-74
2024/01/02 08:47:55;;;;;;;;;;;9.40;99.90;;;;;;4998964;28;19924;-74
2024/01/02 08:50:22;;;;;;;;;;;9.30;99.90;;;;;;4972592;28;20076;-74
2024/01/02 08:52:49;;;;;;;;;;;9.40;99.90;;;;;;5012026;28;20555;-74
2024/01/02 08:55:15;;;;;;;;;;;9.50;99.90;;;;;;4973491;28;19930;-75
2024/01/02 08:57:41;;;;;;;;;;;9.50;99.90;;;;;;4991934;28;19925;-74
2024/01/02 09:00:07;;;;;;;;;;;9.50;99.90;;;;;;4968798;28;20364;-74
2024/01/02 09:02:33;;;;;;;;;;;9.60;99.90;;;;;;5011847;28;19932;-74
2024/01/02 09:05:01;;;;;;;;;;;9.60;99.90;;;;;;4979085;28;19936;-74
2024/01/02 09:07:27;;;;;;;;;;;9.70;99.90;;;;;;5008428;28;19925;-74
2024/01/02 09:09:53;;;;;;;;;;;9.70;99.90;;;;;;4997921;28;19931;-74
2024/01/02 09:12:19;;;;;;;;;;;9.70;99.90;;;;;;4965890;28;19960;-74
2024/01/02 09:14:45;;;;;;;;;;;9.70;99.90;;;;;;4983394;28;19932;-73
2024/01/02 09:17:11;;;;;;;;;;;9.80;99.90;;;;;;4978876;28;20592;-74
2024/01/02 09:19:36;;;;;;;;;;;9.80;99.90;;;;;;4981419;28;19929;-73
2024/01/02 09:22:03;;;;;;;;;;;9.90;99.90;;;;;;4968366;28;19935;-74
2024/01/02 09:24:29;;;;;;;;;;;9.90;99.90;;;;;;4979457;28;19924;-74
2024/01/02 09:26:58;;;;;;;;;;;9.90;99.90;;;;;;4981864;28;19936;-74
2024/01/02 09:29:24;;;;;;;;;;;9.80;99.90;;;;;;5000702;28;19925;-75
2024/01/02 09:31:50;;;;;;;;;;;9.90;99.90;;;;;;4966652;28;19925;-75
2024/01/02 09:34:19;;;;;;;;;;;9.90;99.90;;;;;;5001492;28;19929;-75
2024/01/02 09:36:45;;;;;;;;;;;9.90;99.90;;;;;;4971954;28;19963;-75
2024/01/02 09:39:12;;;;;;;;;;;10.00;99.90;;;;;;4983937;28;19933;-75
2024/01/02 09:41:38;;;;;;;;;;;10.00;99.90;;;;;;4982774;28;20563;-75
2024/01/02 09:44:13;;;;;;;;;;;10.10;99.90;;;;;;5012487;28;20378;-74
2024/01/02 09:46:55;;;;;;;;;;;10.10;99.90;;;;;;4980732;28;19929;-75
2024/01/02 09:49:28;;;;;;;;;;;10.10;99.90;;;;;;5016003;28;19925;-74
2024/01/02 09:52:12;;;;;;;;;;;10.20;99.90;;;;;;4973392;28;19924;-75
2024/01/02 09:54:50;;;;;;;;;;;10.30;99.90;;;;;;4999080;28;20038;-75
2024/01/02 09:57:35;;;;;;;;;;;10.30;99.90;;;;;;4961471;28;19924;-75
2024/01/02 10:00:07;;;;;;;;;;;10.30;99.90;;;;;;4966696;28;19933;-74
2024/01/02 10:02:39;;;;;;;;;;;10.30;99.90;;;;;;4997367;28;19924;-75
2024/01/02 10:05:31;;;;;;;;;;;10.30;99.90;;;;;;4972500;28;19924;-74
2024/01/02 10:08:14;;;;;;;;;;;10.30;99.90;;;;;;4997638;28;19924;-74
2024/01/02 10:11:00;;;;;;;;;;;10.30;99.90;;;;;;4985623;28;20486;-74
2024/01/02 10:13:32;;;;;;;;;;;10.30;99.90;;;;;;5003669;28;19924;-74
2024/01/02 10:16:04;;;;;;;;;;;10.40;99.90;;;;;;4982211;28;19928;-75
2024/01/02 10:18:35;;;;;;;;;;;10.40;99.90;;;;;;4977103;28;19955;-75
2024/01/02 10:21:00;;;;;;;;;;;10.40;99.90;;;;;;4973379;28;19932;-74
2024/01/02 10:23:29;;;;;;;;;;;10.40;99.90;;;;;;4988313;28;20043;-74
2024/01/02 10:26:00;;;;;;;;;;;10.50;99.90;;;;;;4972082;28;19924;-75
2024/01/02 10:28:27;;;;;;;;;;;10.50;99.90;;;;;;5001900;28;20001;-74
2024/01/02 10:31:05;;;;;;;;;;;10.50;99.90;;;;;;4955323;28;19931;-75
2024/01/02 10:33:37;;;;;;;;;;;10.60;99.90;;;;;;5003246;28;20026;-74
2024/01/02 10:36:04;;;;;;;;;;;10.60;99.90;;;;;;4985405;28;20513;-76
2024/01/02 10:38:30;;;;;;;;;;;10.60;99.90;;;;;;4995254;28;19939;-74
2024/01/02 10:41:13;;;;;;;;;;;10.60;99.90;;;;;;4975840;28;19967;-74
2024/01/02 10:43:45;;;;;;;;;;;10.60;99.90;;;;;;5006057;28;19925;-74
2024/01/02 10:46:17;;;;;;;;;;;10.70;99.90;;;;;;4963619;28;19935;-73
2024/01/02 10:48:51;;;;;;;;;;;10.70;99.90;;;;;;5004266;28;19935;-74
2024/01/02 10:51:22;;;;;;;;;;;10.70;99.90;;;;;;4969650;28;19991;-75
2024/01/02 10:53:54;;;;;;;;;;;10.70;99.90;;;;;;4988728;28;19935;-73
2024/01/02 10:56:32;;;;;;;;;;;10.70;99.90;;;;;;4961462;28;20530;-75
2024/01/02 10:59:07;;;;;;;;;;;10.70;99.90;;;;;;4996203;28;19936;-74
2024/01/02 11:01:36;;;;;;;;;;;10.70;99.90;;;;;;4980811;28;21051;-74
2024/01/02 11:04:08;;;;;;;;;;;10.80;99.90;;;;;;5002257;28;20992;-73
2024/01/02 11:06:45;;;;;;;;;;;10.80;99.90;;;;;;4983528;28;19925;-75
2024/01/02 11:09:26;;;;;;;;;;;10.80;99.90;;;;;;4986379;28;19924;-74
2024/01/02 11:11:54;;;;;;;;;;;10.90;99.90;;;;;;4969286;28;20003;-74
2024/01/02 11:14:21;;;;;;;;;;;11.00;99.90;;;;;;5001114;28;20000;-74
2024/01/02 11:16:52;;;;;;;;;;;11.00;99.90;;;;;;4968041;28;20552;-74
2024/01/02 11:19:22;;;;;;;;;;;10.90;99.90;;;;;;5012935;28;19933;-74
2024/01/02 11:21:54;;;;;;;;;;;11.00;99.90;;;;;;4980993;28;19924;-73
2024/01/02 11:24:24;;;;;;;;;;;11.00;99.90;;;;;;4988063;28;19951;-74
2024/01/02 11:26:52;;;;;;;;;;;10.90;99.90;;;;;;4985845;28;19935;-74
2024/01/02 11:29:25;;;;;;;;;;;10.90;99.90;;;;;;5004822;28;19925;-74
2024/01/02 11:31:52;;;;;;;;;;;10.90;99.90;;;;;;4986785;28;21172;-74
2024/01/02 11:34:18;;;;;;;;;;;10.90;99.90;;;;;;4982498;28;19996;-73
2024/01/02 11:36:47;;;;;;;;;;;10.90;99.90;;;;;;4987243;28;20652;-73
2024/01/02 11:39:14;;;;;;;;;;;10.90;99.90;;;;;;5004424;28;19936;-73
2024/01/02 11:41:52;;;;;;;;;;;11.00;99.90;;;;;;4988766;28;19929;-75
2024/01/02 11:44:27;;;;;;;;;;;11.00;99.90;;;;;;4999726;28;19924;-74
2024/01/02 11:46:57;;;;;;;;;;;11.00;99.90;;;;;;4956402;28;19924;-74
2024/01/02 11:49:25;;;;;;;;;;;11.00;99.90;;;;;;5001361;28;21005;-74
2024/01/02 11:52:03;;;;;;;;;;;11.00;99.90;;;;;;4986976;28;19959;-75
2024/01/02 11:54:52;;;;;;;;;;;11.00;99.90;;;;;;5006314;28;19928;-75
2024/01/02 11:57:42;;;;;;;;;;;10.90;99.90;;;;;;4983758;28;19931;-74
2024/01/02 12:00:09;;;;;;;;;;;10.90;99.90;;;;;;4946211;28;20444;-74
2024/01/02 12:02:54;;;;;;;;;;;10.90;99.90;;;;;;5012696;28;19932;-73
2024/01/02 12:05:50;;;;;;;;;;;10.80;99.90;;;;;;4977445;28;20438;-75
2024/01/02 12:08:18;;;;;;;;;;;10.80;99.90;;;;;;5001941;28;20446;-74
2024/01/02 12:10:49;;;;;;;;;;;10.80;99.90;;;;;;4972931;28;19932;-74
2024/01/02 12:13:38;;;;;;;;;;;10.80;99.90;;;;;;4986350;28;19929;-75
2024/01/02 12:16:07;;;;;;;;;;;10.80;99.90;;;;;;4974411;28;19940;-75
2024/01/02 12:18:34;;;;;;;;;;;10.70;99.90;;;;;;5000075;28;19932;-76
2024/01/02 12:21:02;;;;;;;;;;;10.70;99.90;;;;;;4958471;28;20602;-75
2024/01/02 12:23:29;;;;;;;;;;;10.70;99.90;;;;;;4980024;28;20939;-75
2024/01/02 12:26:02;;;;;;;;;;;10.70;99.90;;;;;;4970881;28;19940;-74
2024/01/02 12:28:28;;;;;;;;;;;10.70;99.90;;;;;;4999653;28;19925;-75
2024/01/02 12:31:09;;;;;;;;;;;10.70;99.90;;;;;;4978834;28;19928;-75
2024/01/02 12:33:40;;;;;;;;;;;10.70;99.90;;;;;;5005677;28;19929;-75
2024/01/02 12:36:08;;;;;;;;;;;10.70;99.90;;;;;;4967866;28;19924;-75
2024/01/02 12:38:55;;;;;;;;;;;10.70;99.90;;;;;;5013500;28;20346;-74
2024/01/02 12:41:25;;;;;;;;;;;10.70;99.90;;;;;;4974556;28;19925;-74
2024/01/02 12:43:58;;;;;;;;;;;10.70;99.90;;;;;;4996730;28;19925;-74
2024/01/02 12:46:30;;;;;;;;;;;10.70;99.90;;;;;;4977883;28;21134;-75
2024/01/02 12:48:59;;;;;;;;;;;10.70;99.90;;;;;;5000279;28;20323;-74
2024/01/02 12:51:29;;;;;;;;;;;10.70;99.90;;;;;;4981813;28;19931;-74
2024/01/02 12:53:56;;;;;;;;;;;10.70;99.90;;;;;;5001965;28;19932;-74
2024/01/02 12:56:24;;;;;;;;;;;10.70;99.90;;;;;;4981486;28;19924;-75
2024/01/02 12:58:51;;;;;;;;;;;10.70;99.90;;;;;;4985727;28;19940;-73
2024/01/02 13:01:17;;;;;;;;;;;10.60;99.90;;;;;;4969872;28;21046;-74
2024/01/02 13:03:43;;;;;;;;;;;10.70;99.90;;;;;;4978642;28;19951;-74
2024/01/02 13:06:09;;;;;;;;;;;10.70;99.90;;;;;;4970879;28;21057;-75
2024/01/02 13:08:36;;;;;;;;;;;10.70;99.90;;;;;;4998377;28;20007;-73
2024/01/02 13:11:02;;;;;;;;;;;10.70;99.90;;;;;;4969075;28;19932;-73
2024/01/02 13:13:28;;;;;;;;;;;10.60;99.90;;;;;;5000508;28;19942;-74
2024/01/02 13:15:57;;;;;;;;;;;10.70;99.90;;;;;;4971338;28;19929;-74
2024/01/02 13:18:23;;;;;;;;;;;10.60;99.90;;;;;;4980344;28;19925;-75
2024/01/02 13:20:50;;;;;;;;;;;10.70;99.90;;;;;;4955262;28;19928;-73
2024/01/02 13:23:16;;;;;;;;;;;10.60;99.90;;;;;;4986623;28;20537;-73
2024/01/02 13:25:42;;;;;;;;;;;10.70;99.90;;;;;;4976020;28;19924;-74
2024/01/02 13:28:18;;;;;;;;;;;10.70;99.90;;;;;;4990410;28;19929;-73
2024/01/02 13:30:47;;;;;;;;;;;10.60;99.90;;;;;;4971299;28;21029;-74
2024/01/02 13:33:19;;;;;;;;;;;10.60;99.90;;;;;;5000702;28;19931;-74
2024/01/02 13:35:58;;;;;;;;;;;10.60;99.90;;;;;;4958657;28;19932;-72
2024/01/02 13:38:24;;;;;;;;;;;10.70;99.90;;;;;;4998255;28;19925;-73
2024/01/02 13:41:00;;;;;;;;;;;10.60;99.90;;;;;;4971703;28;19932;-73
2024/01/02 13:43:26;;;;;;;;;;;10.60;99.90;;;;;;4981251;28;19931;-74
2024/01/02 13:45:52;;;;;;;;;;;10.60;99.90;;;;;;4956506;28;19935;-74
2024/01/02 13:48:20;;;;;;;;;;;10.60;99.90;;;;;;4985860;28;20622;-74
2024/01/02 13:50:46;;;;;;;;;;;10.60;99.90;;;;;;4971134;28;19925;-73
2024/01/02 13:53:14;;;;;;;;;;;10.60;99.90;;;;;;5000234;28;19940;-73
2024/01/02 13:55:40;;;;;;;;;;;10.60;99.90;;;;;;4975220;28;20626;-74
2024/01/02 13:58:13;;;;;;;;;;;10.60;99.90;;;;;;5005852;28;19925;-73
2024/01/02 14:00:44;;;;;;;;;;;10.50;99.90;;;;;;4970803;28;19940;-73
2024/01/02 14:03:10;;;;;;;;;;;10.60;99.90;;;;;;5006503;28;21017;-73
2024/01/02 14:05:40;;;;;;;;;;;10.60;99.90;;;;;;4972414;28;19929;-73
2024/01/02 14:08:06;;;;;;;;;;;10.60;99.90;;;;;;4983748;28;20518;-74
2024/01/02 14:10:36;;;;;;;;;;;10.60;99.90;;;;;;4977104;28;19925;-75
2024/01/02 14:13:02;;;;;;;;;;;10.50;99.90;;;;;;4995916;28;19925;-76
2024/01/02 14:15:29;;;;;;;;;;;10.50;99.90;;;;;;4972643;28;19960;-75
2024/01/02 14:18:03;;;;;;;;;;;10.50;99.90;;;;;;5001213;28;19928;-74
2024/01/02 14:20:33;;;;;;;;;;;10.50;99.90;;;;;;4964562;28;20312;-76
2024/01/02 14:23:06;;;;;;;;;;;10.50;99.90;;;;;;4974854;28;20506;-77
2024/01/02 14:25:32;;;;;;;;;;;10.50;99.90;;;;;;4973640;28;20950;-77
2024/01/02 14:28:16;;;;;;;;;;;10.50;99.90;;;;;;5007204;28;19956;-77
2024/01/02 14:30:43;;;;;;;;;;;10.50;99.90;;;;;;4965023;28;19935;-78